sensor_id;sensor_type;location;lat;lon;timestamp;pressure;altitude;pressure_sealevel;temperature;humidity
63339;BME280;47485;51.378;-1.342;2023-03-15T00:00:52;100038.20;;;2.42;33.62
63339;BME280;47485;51.378;-1.342;2023-03-15T00:03:24;100040.81;;;0.09;35.22
63339;BME280;47485;51.378;-1.342;2023-03-15T00:05:51;100037.96;;;3.84;32.39
63339;BME280;47485;51.378;-1.342;2023-03-15T00:08:18;100040.89;;;3.08;32.28
63339;BME280;47485;51.378;-1.342;2023-03-15T00:10:52;100047.74;;;3.29;32.23
63339;BME280;47485;51.378;-1.342;2023-03-15T00:13:19;100053.51;;;3.04;32.35
63339;BME280;47485;51.378;-1.342;2023-03-15T00:15:47;100066.17;;;1.92;33.58
63339;BME280;47485;51.378;-1.342;2023-03-15T00:18:16;100061.32;;;4.95;31.78
63339;BME280;47485;51.378;-1.342;2023-03-15T00:20:44;100066.07;;;4.40;32.73
63339;BME280;47485;51.378;-1.342;2023-03-15T00:23:11;100071.78;;;3.02;34.49
63339;BME280;47485;51.378;-1.342;2023-03-15T00:25:38;100073.16;;;2.33;35.66
63339;BME280;47485;51.378;-1.342;2023-03-15T00:28:05;100074.28;;;3.95;34.70
63339;BME280;47485;51.378;-1.342;2023-03-15T00:30:31;100080.42;;;3.11;33.96
63339;BME280;47485;51.378;-1.342;2023-03-15T00:32:58;100083.86;;;3.19;33.77
63339;BME280;47485;51.378;-1.342;2023-03-15T00:35:25;100083.60;;;2.50;34.46
63339;BME280;47485;51.378;-1.342;2023-03-15T00:37:53;100082.65;;;2.75;33.89
63339;BME280;47485;51.378;-1.342;2023-03-15T00:40:21;100080.54;;;2.55;34.17
63339;BME280;47485;51.378;-1.342;2023-03-15T00:42:49;100079.84;;;2.39;33.74
63339;BME280;47485;51.378;-1.342;2023-03-15T00:45:23;100077.26;;;5.77;31.22
63339;BME280;47485;51.378;-1.342;2023-03-15T00:47:51;100087.34;;;4.39;32.10
63339;BME280;47485;51.378;-1.342;2023-03-15T00:50:20;100089.00;;;4.39;32.27
63339;BME280;47485;51.378;-1.342;2023-03-15T00:52:47;100090.91;;;4.47;32.21
63339;BME280;47485;51.378;-1.342;2023-03-15T00:55:16;100089.74;;;4.63;32.50
63339;BME280;47485;51.378;-1.342;2023-03-15T00:57:45;100088.95;;;2.72;33.24
63339;BME280;47485;51.378;-1.342;2023-03-15T01:00:16;100098.32;;;3.14;34.17
63339;BME280;47485;51.378;-1.342;2023-03-15T01:02:43;100104.85;;;2.89;34.96
63339;BME280;47485;51.378;-1.342;2023-03-15T01:05:11;100102.73;;;3.89;34.03
63339;BME280;47485;51.378;-1.342;2023-03-15T01:07:39;100103.22;;;2.34;33.82
63339;BME280;47485;51.378;-1.342;2023-03-15T01:10:09;100106.30;;;2.87;34.23
63339;BME280;47485;51.378;-1.342;2023-03-15T01:12:36;100104.98;;;2.95;34.16
63339;BME280;47485;51.378;-1.342;2023-03-15T01:15:06;100101.37;;;2.63;34.45
63339;BME280;47485;51.378;-1.342;2023-03-15T01:17:34;100107.86;;;2.83;34.63
63339;BME280;47485;51.378;-1.342;2023-03-15T01:20:07;100108.89;;;2.32;35.20
63339;BME280;47485;51.378;-1.342;2023-03-15T01:22:35;100112.13;;;2.94;34.94
63339;BME280;47485;51.378;-1.342;2023-03-15T01:25:02;100116.14;;;2.17;35.09
63339;BME280;47485;51.378;-1.342;2023-03-15T01:27:29;100120.11;;;2.77;34.53
63339;BME280;47485;51.378;-1.342;2023-03-15T01:29:57;100118.62;;;2.43;33.86
63339;BME280;47485;51.378;-1.342;2023-03-15T01:32:23;100118.72;;;3.08;34.14
63339;BME280;47485;51.378;-1.342;2023-03-15T01:34:51;100112.42;;;1.33;35.19
63339;BME280;47485;51.378;-1.342;2023-03-15T01:37:19;100121.36;;;1.11;37.96
63339;BME280;47485;51.378;-1.342;2023-03-15T01:39:47;100128.07;;;1.69;38.13
63339;BME280;47485;51.378;-1.342;2023-03-15T01:42:14;100129.94;;;1.37;36.95
63339;BME280;47485;51.378;-1.342;2023-03-15T01:44:49;100134.00;;;1.60;36.66
63339;BME280;47485;51.378;-1.342;2023-03-15T01:47:17;100140.17;;;0.20;36.99
63339;BME280;47485;51.378;-1.342;2023-03-15T01:49:46;100136.48;;;1.77;36.31
63339;BME280;47485;51.378;-1.342;2023-03-15T01:52:18;100138.07;;;2.68;36.17
63339;BME280;47485;51.378;-1.342;2023-03-15T01:54:50;100143.45;;;1.75;35.30
63339;BME280;47485;51.378;-1.342;2023-03-15T01:57:23;100148.87;;;2.71;36.63
63339;BME280;47485;51.378;-1.342;2023-03-15T01:59:57;100146.27;;;1.20;36.19
63339;BME280;47485;51.378;-1.342;2023-03-15T02:02:24;100145.38;;;1.94;35.94
63339;BME280;47485;51.378;-1.342;2023-03-15T02:04:56;100143.77;;;2.55;35.67
63339;BME280;47485;51.378;-1.342;2023-03-15T02:07:28;100143.71;;;1.09;36.07
63339;BME280;47485;51.378;-1.342;2023-03-15T02:10:00;100149.22;;;1.76;36.71
63339;BME280;47485;51.378;-1.342;2023-03-15T02:12:31;100152.00;;;0.02;35.61
63339;BME280;47485;51.378;-1.342;2023-03-15T02:15:00;100147.41;;;3.75;32.97
63339;BME280;47485;51.378;-1.342;2023-03-15T02:17:34;100147.67;;;2.56;33.58
63339;BME280;47485;51.378;-1.342;2023-03-15T02:20:11;100145.31;;;3.67;31.64
63339;BME280;47485;51.378;-1.342;2023-03-15T02:22:49;100140.82;;;3.20;31.63
63339;BME280;47485;51.378;-1.342;2023-03-15T02:25:25;100145.15;;;3.46;31.65
63339;BME280;47485;51.378;-1.342;2023-03-15T02:27:58;100146.89;;;4.65;31.02
63339;BME280;47485;51.378;-1.342;2023-03-15T02:30:26;100148.75;;;4.09;31.65
63339;BME280;47485;51.378;-1.342;2023-03-15T02:32:53;100146.90;;;2.49;33.35
63339;BME280;47485;51.378;-1.342;2023-03-15T02:35:23;100148.19;;;1.84;34.63
63339;BME280;47485;51.378;-1.342;2023-03-15T02:37:50;100151.00;;;1.46;35.09
63339;BME280;47485;51.378;-1.342;2023-03-15T02:40:20;100154.71;;;2.05;34.96
63339;BME280;47485;51.378;-1.342;2023-03-15T02:42:51;100151.63;;;3.23;34.00
63339;BME280;47485;51.378;-1.342;2023-03-15T02:45:20;100148.68;;;2.60;34.46
63339;BME280;47485;51.378;-1.342;2023-03-15T02:47:48;100153.00;;;1.69;35.93
63339;BME280;47485;51.378;-1.342;2023-03-15T02:50:15;100152.92;;;2.07;35.77
63339;BME280;47485;51.378;-1.342;2023-03-15T02:52:43;100156.37;;;1.75;35.90
63339;BME280;47485;51.378;-1.342;2023-03-15T02:55:10;100152.33;;;0.66;35.95
63339;BME280;47485;51.378;-1.342;2023-03-15T02:57:37;100147.96;;;1.96;36.18
63339;BME280;47485;51.378;-1.342;2023-03-15T03:00:06;100149.03;;;1.74;35.49
63339;BME280;47485;51.378;-1.342;2023-03-15T03:02:33;100148.76;;;2.56;34.78
63339;BME280;47485;51.378;-1.342;2023-03-15T03:05:00;100151.45;;;1.95;33.85
63339;BME280;47485;51.378;-1.342;2023-03-15T03:07:26;100146.79;;;2.60;33.08
63339;BME280;47485;51.378;-1.342;2023-03-15T03:09:53;100141.85;;;2.39;32.48
63339;BME280;47485;51.378;-1.342;2023-03-15T03:12:20;100142.52;;;3.63;31.23
63339;BME280;47485;51.378;-1.342;2023-03-15T03:14:47;100149.37;;;4.51;30.65
63339;BME280;47485;51.378;-1.342;2023-03-15T03:17:15;100153.29;;;4.23;30.70
63339;BME280;47485;51.378;-1.342;2023-03-15T03:19:42;100153.12;;;2.98;30.40
63339;BME280;47485;51.378;-1.342;2023-03-15T03:22:10;100156.15;;;0.12;32.66
63339;BME280;47485;51.378;-1.342;2023-03-15T03:24:42;100156.75;;;1.13;32.04
63339;BME280;47485;51.378;-1.342;2023-03-15T03:27:10;100164.65;;;0.34;31.98
63339;BME280;47485;51.378;-1.342;2023-03-15T03:29:37;100166.61;;;3.69;29.64
63339;BME280;47485;51.378;-1.342;2023-03-15T03:32:04;100167.56;;;5.04;28.29
63339;BME280;47485;51.378;-1.342;2023-03-15T03:34:31;100180.28;;;4.98;29.85
63339;BME280;47485;51.378;-1.342;2023-03-15T03:36:58;100188.33;;;3.65;30.90
63339;BME280;47485;51.378;-1.342;2023-03-15T03:39:25;100195.57;;;3.86;30.89
63339;BME280;47485;51.378;-1.342;2023-03-15T03:41:52;100203.00;;;1.49;32.16
63339;BME280;47485;51.378;-1.342;2023-03-15T03:44:18;100199.75;;;-0.38;34.08
63339;BME280;47485;51.378;-1.342;2023-03-15T03:46:45;100195.10;;;1.10;32.81
63339;BME280;47485;51.378;-1.342;2023-03-15T03:49:12;100194.43;;;1.99;31.10
63339;BME280;47485;51.378;-1.342;2023-03-15T03:51:39;100190.74;;;2.02;30.92
63339;BME280;47485;51.378;-1.342;2023-03-15T03:54:06;100179.26;;;5.19;27.90
63339;BME280;47485;51.378;-1.342;2023-03-15T03:56:34;100176.18;;;5.37;26.51
63339;BME280;47485;51.378;-1.342;2023-03-15T03:59:02;100184.41;;;4.96;26.94
63339;BME280;47485;51.378;-1.342;2023-03-15T04:01:29;100190.43;;;4.38;27.56
63339;BME280;47485;51.378;-1.342;2023-03-15T04:03:55;100194.77;;;4.10;28.23
63339;BME280;47485;51.378;-1.342;2023-03-15T04:06:22;100189.60;;;3.92;28.87
63339;BME280;47485;51.378;-1.342;2023-03-15T04:08:49;100181.09;;;-0.14;32.09
63339;BME280;47485;51.378;-1.342;2023-03-15T04:11:17;100174.26;;;4.78;28.38
63339;BME280;47485;51.378;-1.342;2023-03-15T04:13:44;100179.29;;;3.84;28.73
63339;BME280;47485;51.378;-1.342;2023-03-15T04:16:11;100185.03;;;3.64;29.19
63339;BME280;47485;51.378;-1.342;2023-03-15T04:18:38;100183.08;;;3.84;29.52
63339;BME280;47485;51.378;-1.342;2023-03-15T04:21:05;100183.83;;;2.97;28.85
63339;BME280;47485;51.378;-1.342;2023-03-15T04:23:33;100181.21;;;1.92;28.95
63339;BME280;47485;51.378;-1.342;2023-03-15T04:26:00;100181.79;;;3.82;28.32
63339;BME280;47485;51.378;-1.342;2023-03-15T04:28:27;100180.54;;;3.92;27.90
63339;BME280;47485;51.378;-1.342;2023-03-15T04:30:54;100179.31;;;3.02;28.48
63339;BME280;47485;51.378;-1.342;2023-03-15T04:33:21;100178.32;;;2.24;28.76
63339;BME280;47485;51.378;-1.342;2023-03-15T04:35:47;100187.53;;;3.86;27.46
63339;BME280;47485;51.378;-1.342;2023-03-15T04:38:14;100189.06;;;1.75;28.77
63339;BME280;47485;51.378;-1.342;2023-03-15T04:40:41;100188.88;;;3.05;27.43
63339;BME280;47485;51.378;-1.342;2023-03-15T04:43:09;100185.35;;;6.20;25.50
63339;BME280;47485;51.378;-1.342;2023-03-15T04:45:38;100196.84;;;3.81;26.61
63339;BME280;47485;51.378;-1.342;2023-03-15T04:48:05;100194.72;;;4.31;28.81
63339;BME280;47485;51.378;-1.342;2023-03-15T04:50:32;100190.99;;;3.31;29.47
63339;BME280;47485;51.378;-1.342;2023-03-15T04:52:59;100183.00;;;2.45;30.19
63339;BME280;47485;51.378;-1.342;2023-03-15T04:55:26;100181.46;;;0.16;31.09
63339;BME280;47485;51.378;-1.342;2023-03-15T04:57:53;100181.90;;;0.94;30.71
63339;BME280;47485;51.378;-1.342;2023-03-15T05:00:20;100186.01;;;1.11;30.28
63339;BME280;47485;51.378;-1.342;2023-03-15T05:02:48;100187.86;;;-1.10;30.88
63339;BME280;47485;51.378;-1.342;2023-03-15T05:05:14;100184.89;;;0.45;29.41
63339;BME280;47485;51.378;-1.342;2023-03-15T05:07:41;100179.67;;;1.13;28.83
63339;BME280;47485;51.378;-1.342;2023-03-15T05:10:10;100178.76;;;1.50;28.36
63339;BME280;47485;51.378;-1.342;2023-03-15T05:12:37;100177.08;;;3.91;26.33
63339;BME280;47485;51.378;-1.342;2023-03-15T05:15:05;100183.49;;;5.05;25.33
63339;BME280;47485;51.378;-1.342;2023-03-15T05:17:33;100195.19;;;4.24;26.00
63339;BME280;47485;51.378;-1.342;2023-03-15T05:20:00;100196.96;;;4.23;25.73
63339;BME280;47485;51.378;-1.342;2023-03-15T05:22:27;100196.07;;;6.80;25.19
63339;BME280;47485;51.378;-1.342;2023-03-15T05:24:54;100202.57;;;5.06;25.92
63339;BME280;47485;51.378;-1.342;2023-03-15T05:27:20;100204.27;;;4.35;26.45
63339;BME280;47485;51.378;-1.342;2023-03-15T05:29:47;100207.47;;;4.51;26.38
63339;BME280;47485;51.378;-1.342;2023-03-15T05:32:15;100214.36;;;4.96;26.25
63339;BME280;47485;51.378;-1.342;2023-03-15T05:34:42;100220.11;;;5.12;26.40
63339;BME280;47485;51.378;-1.342;2023-03-15T05:37:10;100216.55;;;4.11;27.54
63339;BME280;47485;51.378;-1.342;2023-03-15T05:39:37;100217.90;;;4.28;28.22
63339;BME280;47485;51.378;-1.342;2023-03-15T05:42:04;100217.61;;;2.68;28.75
63339;BME280;47485;51.378;-1.342;2023-03-15T05:44:31;100218.20;;;1.97;28.92
63339;BME280;47485;51.378;-1.342;2023-03-15T05:46:58;100223.03;;;1.46;29.18
63339;BME280;47485;51.378;-1.342;2023-03-15T05:49:25;100229.59;;;-0.23;30.87
63339;BME280;47485;51.378;-1.342;2023-03-15T05:51:52;100231.21;;;-0.12;30.03
63339;BME280;47485;51.378;-1.342;2023-03-15T05:54:18;100228.78;;;-0.82;30.07
63339;BME280;47485;51.378;-1.342;2023-03-15T05:56:46;100226.93;;;-1.16;29.76
63339;BME280;47485;51.378;-1.342;2023-03-15T05:59:13;100226.08;;;0.22;28.68
63339;BME280;47485;51.378;-1.342;2023-03-15T06:01:40;100225.48;;;0.07;28.42
63339;BME280;47485;51.378;-1.342;2023-03-15T06:04:13;100226.41;;;2.67;26.80
63339;BME280;47485;51.378;-1.342;2023-03-15T06:06:40;100229.42;;;3.36;25.89
63339;BME280;47485;51.378;-1.342;2023-03-15T06:09:09;100230.78;;;4.74;25.16
63339;BME280;47485;51.378;-1.342;2023-03-15T06:11:37;100234.17;;;4.04;25.71
63339;BME280;47485;51.378;-1.342;2023-03-15T06:14:04;100241.62;;;1.52;27.31
63339;BME280;47485;51.378;-1.342;2023-03-15T06:16:30;100239.91;;;2.14;27.22
63339;BME280;47485;51.378;-1.342;2023-03-15T06:18:57;100238.89;;;3.08;27.00
63339;BME280;47485;51.378;-1.342;2023-03-15T06:21:24;100242.18;;;2.72;26.16
63339;BME280;47485;51.378;-1.342;2023-03-15T06:23:50;100240.38;;;4.17;25.19
63339;BME280;47485;51.378;-1.342;2023-03-15T06:26:17;100247.89;;;4.27;25.48
63339;BME280;47485;51.378;-1.342;2023-03-15T06:28:45;100249.33;;;1.39;27.57
63339;BME280;47485;51.378;-1.342;2023-03-15T06:31:14;100245.93;;;2.38;27.22
63339;BME280;47485;51.378;-1.342;2023-03-15T06:33:41;100246.15;;;1.59;27.69
63339;BME280;47485;51.378;-1.342;2023-03-15T06:36:10;100243.25;;;-1.02;27.90
63339;BME280;47485;51.378;-1.342;2023-03-15T06:38:36;100245.02;;;-0.14;27.63
63339;BME280;47485;51.378;-1.342;2023-03-15T06:41:10;100246.02;;;1.43;27.40
63339;BME280;47485;51.378;-1.342;2023-03-15T06:43:37;100245.06;;;1.00;26.99
63339;BME280;47485;51.378;-1.342;2023-03-15T06:46:04;100242.40;;;2.69;26.03
63339;BME280;47485;51.378;-1.342;2023-03-15T06:48:31;100244.91;;;2.91;24.76
63339;BME280;47485;51.378;-1.342;2023-03-15T06:50:58;100256.81;;;4.03;25.87
63339;BME280;47485;51.378;-1.342;2023-03-15T06:53:24;100259.06;;;3.37;25.39
63339;BME280;47485;51.378;-1.342;2023-03-15T06:55:51;100263.88;;;2.30;26.76
63339;BME280;47485;51.378;-1.342;2023-03-15T06:58:19;100265.18;;;3.12;26.21
63339;BME280;47485;51.378;-1.342;2023-03-15T07:00:45;100264.66;;;4.27;25.15
63339;BME280;47485;51.378;-1.342;2023-03-15T07:03:13;100270.05;;;4.06;25.78
63339;BME280;47485;51.378;-1.342;2023-03-15T07:05:42;100269.59;;;2.13;26.96
63339;BME280;47485;51.378;-1.342;2023-03-15T07:08:10;100266.25;;;2.07;27.16
63339;BME280;47485;51.378;-1.342;2023-03-15T07:10:37;100274.33;;;0.92;27.78
63339;BME280;47485;51.378;-1.342;2023-03-15T07:13:04;100274.26;;;2.39;26.96
63339;BME280;47485;51.378;-1.342;2023-03-15T07:15:31;100273.46;;;1.76;27.94
63339;BME280;47485;51.378;-1.342;2023-03-15T07:17:58;100279.05;;;0.91;28.26
63339;BME280;47485;51.378;-1.342;2023-03-15T07:20:26;100278.86;;;1.77;27.43
63339;BME280;47485;51.378;-1.342;2023-03-15T07:22:52;100282.46;;;0.62;28.27
63339;BME280;47485;51.378;-1.342;2023-03-15T07:25:19;100279.43;;;0.98;27.50
63339;BME280;47485;51.378;-1.342;2023-03-15T07:27:46;100279.47;;;1.78;27.32
63339;BME280;47485;51.378;-1.342;2023-03-15T07:30:13;100279.55;;;1.61;27.47
63339;BME280;47485;51.378;-1.342;2023-03-15T07:32:40;100282.66;;;2.33;26.98
63339;BME280;47485;51.378;-1.342;2023-03-15T07:35:08;100285.60;;;1.92;27.00
63339;BME280;47485;51.378;-1.342;2023-03-15T07:37:35;100278.05;;;2.92;26.65
63339;BME280;47485;51.378;-1.342;2023-03-15T07:40:03;100274.96;;;1.57;28.06
63339;BME280;47485;51.378;-1.342;2023-03-15T07:42:30;100281.88;;;2.00;27.52
63339;BME280;47485;51.378;-1.342;2023-03-15T07:44:57;100280.86;;;2.76;26.76
63339;BME280;47485;51.378;-1.342;2023-03-15T07:47:24;100283.75;;;2.67;27.07
63339;BME280;47485;51.378;-1.342;2023-03-15T07:49:50;100285.58;;;1.90;26.94
63339;BME280;47485;51.378;-1.342;2023-03-15T07:52:19;100288.09;;;2.53;27.18
63339;BME280;47485;51.378;-1.342;2023-03-15T07:54:46;100282.58;;;1.98;27.39
63339;BME280;47485;51.378;-1.342;2023-03-15T07:57:12;100280.07;;;2.46;27.63
63339;BME280;47485;51.378;-1.342;2023-03-15T07:59:39;100276.83;;;2.98;27.35
63339;BME280;47485;51.378;-1.342;2023-03-15T08:02:10;100275.82;;;2.26;27.43
63339;BME280;47485;51.378;-1.342;2023-03-15T08:04:37;100272.97;;;3.68;26.95
63339;BME280;47485;51.378;-1.342;2023-03-15T08:07:04;100273.11;;;3.87;26.81
63339;BME280;47485;51.378;-1.342;2023-03-15T08:09:32;100272.89;;;3.64;26.61
63339;BME280;47485;51.378;-1.342;2023-03-15T08:11:59;100277.91;;;2.86;26.86
63339;BME280;47485;51.378;-1.342;2023-03-15T08:14:26;100281.16;;;4.56;26.82
63339;BME280;47485;51.378;-1.342;2023-03-15T08:16:53;100282.69;;;3.91;27.16
63339;BME280;47485;51.378;-1.342;2023-03-15T08:19:20;100282.73;;;4.25;26.99
63339;BME280;47485;51.378;-1.342;2023-03-15T08:21:47;100283.05;;;3.11;27.06
63339;BME280;47485;51.378;-1.342;2023-03-15T08:24:14;100278.88;;;2.95;26.81
63339;BME280;47485;51.378;-1.342;2023-03-15T08:26:50;100277.21;;;3.77;26.70
63339;BME280;47485;51.378;-1.342;2023-03-15T08:29:18;100281.71;;;4.95;26.74
63339;BME280;47485;51.378;-1.342;2023-03-15T08:31:45;100283.47;;;3.39;27.13
63339;BME280;47485;51.378;-1.342;2023-03-15T08:34:11;100279.87;;;5.43;25.66
63339;BME280;47485;51.378;-1.342;2023-03-15T08:36:38;100282.31;;;3.93;26.92
63339;BME280;47485;51.378;-1.342;2023-03-15T08:39:05;100279.44;;;4.61;26.82
63339;BME280;47485;51.378;-1.342;2023-03-15T08:41:32;100278.18;;;4.06;27.82
63339;BME280;47485;51.378;-1.342;2023-03-15T08:43:58;100276.98;;;4.30;27.34
63339;BME280;47485;51.378;-1.342;2023-03-15T08:46:25;100279.07;;;3.28;27.40
63339;BME280;47485;51.378;-1.342;2023-03-15T08:48:53;100276.18;;;3.69;27.75
63339;BME280;47485;51.378;-1.342;2023-03-15T08:51:20;100273.84;;;2.40;28.42
63339;BME280;47485;51.378;-1.342;2023-03-15T08:53:47;100274.66;;;3.16;27.47
63339;BME280;47485;51.378;-1.342;2023-03-15T08:56:14;100273.97;;;3.10;28.47
63339;BME280;47485;51.378;-1.342;2023-03-15T08:58:41;100272.25;;;3.88;28.05
63339;BME280;47485;51.378;-1.342;2023-03-15T09:01:10;100274.69;;;4.75;27.82
63339;BME280;47485;51.378;-1.342;2023-03-15T09:03:37;100270.96;;;5.23;27.92
63339;BME280;47485;51.378;-1.342;2023-03-15T09:06:04;100270.52;;;2.76;29.70
63339;BME280;47485;51.378;-1.342;2023-03-15T09:08:32;100272.64;;;3.15;28.87
63339;BME280;47485;51.378;-1.342;2023-03-15T09:10:59;100271.14;;;4.41;28.09
63339;BME280;47485;51.378;-1.342;2023-03-15T09:13:27;100274.29;;;2.15;29.62
63339;BME280;47485;51.378;-1.342;2023-03-15T09:15:55;100276.92;;;0.35;30.67
63339;BME280;47485;51.378;-1.342;2023-03-15T09:18:23;100282.35;;;1.63;29.41
63339;BME280;47485;51.378;-1.342;2023-03-15T09:20:50;100278.57;;;1.67;30.05
63339;BME280;47485;51.378;-1.342;2023-03-15T09:23:17;100275.95;;;-0.74;30.58
63339;BME280;47485;51.378;-1.342;2023-03-15T09:25:44;100275.29;;;1.86;29.08
63339;BME280;47485;51.378;-1.342;2023-03-15T09:28:11;100271.11;;;2.04;28.60
63339;BME280;47485;51.378;-1.342;2023-03-15T09:30:40;100276.47;;;1.28;29.04
63339;BME280;47485;51.378;-1.342;2023-03-15T09:33:08;100271.18;;;3.24;28.47
63339;BME280;47485;51.378;-1.342;2023-03-15T09:35:35;100281.10;;;1.13;28.99
63339;BME280;47485;51.378;-1.342;2023-03-15T09:38:02;100287.24;;;2.97;29.17
63339;BME280;47485;51.378;-1.342;2023-03-15T09:40:31;100289.79;;;2.29;29.27
63339;BME280;47485;51.378;-1.342;2023-03-15T09:43:14;100290.67;;;1.19;31.15
63339;BME280;47485;51.378;-1.342;2023-03-15T09:45:58;100297.78;;;1.03;29.99
63339;BME280;47485;51.378;-1.342;2023-03-15T09:48:31;100299.70;;;1.22;29.66
63339;BME280;47485;51.378;-1.342;2023-03-15T09:51:03;100298.20;;;1.31;30.84
63339;BME280;47485;51.378;-1.342;2023-03-15T09:53:38;100310.24;;;-1.85;34.61
63339;BME280;47485;51.378;-1.342;2023-03-15T09:56:19;100306.48;;;1.04;31.93
63339;BME280;47485;51.378;-1.342;2023-03-15T09:58:48;100303.43;;;0.62;32.00
63339;BME280;47485;51.378;-1.342;2023-03-15T10:01:19;100304.11;;;1.64;31.39
63339;BME280;47485;51.378;-1.342;2023-03-15T10:03:52;100306.72;;;0.37;31.39
63339;BME280;47485;51.378;-1.342;2023-03-15T10:06:22;100304.21;;;3.56;28.16
63339;BME280;47485;51.378;-1.342;2023-03-15T10:08:52;100308.69;;;1.13;31.57
63339;BME280;47485;51.378;-1.342;2023-03-15T10:11:28;100315.84;;;1.52;32.23
63339;BME280;47485;51.378;-1.342;2023-03-15T10:14:12;100314.73;;;-0.16;32.31
63339;BME280;47485;51.378;-1.342;2023-03-15T10:16:46;100314.40;;;1.65;30.84
63339;BME280;47485;51.378;-1.342;2023-03-15T10:19:17;100319.75;;;-0.30;31.69
63339;BME280;47485;51.378;-1.342;2023-03-15T10:21:53;100320.42;;;1.27;30.28
63339;BME280;47485;51.378;-1.342;2023-03-15T10:24:27;100314.61;;;2.09;29.18
63339;BME280;47485;51.378;-1.342;2023-03-15T10:26:58;100312.37;;;2.09;28.78
63339;BME280;47485;51.378;-1.342;2023-03-15T10:29:28;100308.80;;;4.31;27.15
63339;BME280;47485;51.378;-1.342;2023-03-15T10:31:55;100313.19;;;4.54;28.29
63339;BME280;47485;51.378;-1.342;2023-03-15T10:34:23;100313.84;;;2.60;29.05
63339;BME280;47485;51.378;-1.342;2023-03-15T10:36:51;100320.12;;;-1.43;30.84
63339;BME280;47485;51.378;-1.342;2023-03-15T10:39:18;100314.11;;;3.64;28.95
63339;BME280;47485;51.378;-1.342;2023-03-15T10:41:47;100309.71;;;4.93;27.95
63339;BME280;47485;51.378;-1.342;2023-03-15T10:44:17;100318.10;;;-0.50;31.76
63339;BME280;47485;51.378;-1.342;2023-03-15T10:47:00;100308.94;;;2.92;29.24
63339;BME280;47485;51.378;-1.342;2023-03-15T10:49:34;100301.18;;;4.03;27.06
63339;BME280;47485;51.378;-1.342;2023-03-15T10:52:02;100302.55;;;0.51;31.16
63339;BME280;47485;51.378;-1.342;2023-03-15T10:54:31;100293.85;;;1.75;29.68
63339;BME280;47485;51.378;-1.342;2023-03-15T10:57:01;100290.08;;;3.01;29.34
63339;BME280;47485;51.378;-1.342;2023-03-15T10:59:30;100283.87;;;4.06;27.83
63339;BME280;47485;51.378;-1.342;2023-03-15T11:02:30;100285.34;;;1.42;31.00
63339;BME280;47485;51.378;-1.342;2023-03-15T11:05:02;100285.54;;;-0.07;31.78
63339;BME280;47485;51.378;-1.342;2023-03-15T11:07:33;100278.86;;;1.02;30.60
63339;BME280;47485;51.378;-1.342;2023-03-15T11:10:07;100278.32;;;1.58;30.85
63339;BME280;47485;51.378;-1.342;2023-03-15T11:12:33;100279.37;;;-0.21;33.02
63339;BME280;47485;51.378;-1.342;2023-03-15T11:15:03;100275.76;;;-0.06;31.59
63339;BME280;47485;51.378;-1.342;2023-03-15T11:17:33;100274.00;;;2.27;29.79
63339;BME280;47485;51.378;-1.342;2023-03-15T11:20:09;100276.37;;;0.41;30.78
63339;BME280;47485;51.378;-1.342;2023-03-15T11:22:45;100277.55;;;3.78;29.94
63339;BME280;47485;51.378;-1.342;2023-03-15T11:25:17;100272.66;;;1.45;30.84
63339;BME280;47485;51.378;-1.342;2023-03-15T11:27:49;100274.63;;;3.98;28.46
63339;BME280;47485;51.378;-1.342;2023-03-15T11:30:26;100268.57;;;5.24;29.05
63339;BME280;47485;51.378;-1.342;2023-03-15T11:33:04;100270.24;;;4.10;30.48
63339;BME280;47485;51.378;-1.342;2023-03-15T11:35:41;100274.07;;;3.61;30.94
63339;BME280;47485;51.378;-1.342;2023-03-15T11:38:12;100276.99;;;1.84;32.82
63339;BME280;47485;51.378;-1.342;2023-03-15T11:40:42;100275.02;;;4.24;31.67
63339;BME280;47485;51.378;-1.342;2023-03-15T11:43:16;100276.72;;;-1.93;37.81
63339;BME280;47485;51.378;-1.342;2023-03-15T11:45:51;100265.02;;;-1.75;36.37
63339;BME280;47485;51.378;-1.342;2023-03-15T11:48:23;100260.04;;;3.42;31.96
63339;BME280;47485;51.378;-1.342;2023-03-15T11:50:52;100263.01;;;1.72;34.34
63339;BME280;47485;51.378;-1.342;2023-03-15T11:53:20;100264.73;;;0.99;34.50
63339;BME280;47485;51.378;-1.342;2023-03-15T11:55:50;100259.14;;;3.95;31.36
63339;BME280;47485;51.378;-1.342;2023-03-15T11:58:32;100263.15;;;0.69;34.93
63339;BME280;47485;51.378;-1.342;2023-03-15T12:01:05;100259.87;;;-0.56;34.99
63339;BME280;47485;51.378;-1.342;2023-03-15T12:03:41;100254.55;;;2.90;33.42
63339;BME280;47485;51.378;-1.342;2023-03-15T12:06:32;100259.80;;;3.41;32.43
63339;BME280;47485;51.378;-1.342;2023-03-15T12:09:00;100255.40;;;3.52;33.60
63339;BME280;47485;51.378;-1.342;2023-03-15T12:11:42;100254.97;;;1.92;36.31
63339;BME280;47485;51.378;-1.342;2023-03-15T12:14:31;100257.25;;;0.28;36.84
63339;BME280;47485;51.378;-1.342;2023-03-15T12:18:13;100259.62;;;3.87;35.67
63339;BME280;47485;51.378;-1.342;2023-03-15T12:21:30;100247.73;;;0.11;36.55
63339;BME280;47485;51.378;-1.342;2023-03-15T12:24:13;100240.60;;;2.40;35.74
63339;BME280;47485;51.378;-1.342;2023-03-15T12:26:44;100231.41;;;1.28;33.81
63339;BME280;47485;51.378;-1.342;2023-03-15T12:29:22;100223.50;;;4.08;32.42
63339;BME280;47485;51.378;-1.342;2023-03-15T12:31:57;100224.45;;;3.38;32.58
63339;BME280;47485;51.378;-1.342;2023-03-15T12:34:35;100221.87;;;1.98;34.72
63339;BME280;47485;51.378;-1.342;2023-03-15T12:37:06;100226.90;;;2.89;34.29
63339;BME280;47485;51.378;-1.342;2023-03-15T12:39:39;100230.33;;;4.25;32.98
63339;BME280;47485;51.378;-1.342;2023-03-15T12:42:13;100239.16;;;2.44;34.76
63339;BME280;47485;51.378;-1.342;2023-03-15T12:45:35;100240.60;;;3.87;33.39
63339;BME280;47485;51.378;-1.342;2023-03-15T12:49:11;100239.08;;;2.71;35.46
63339;BME280;47485;51.378;-1.342;2023-03-15T12:51:43;100240.40;;;1.37;36.58
63339;BME280;47485;51.378;-1.342;2023-03-15T12:54:13;100243.04;;;1.99;37.71
63339;BME280;47485;51.378;-1.342;2023-03-15T12:56:44;100238.21;;;1.80;37.22
63339;BME280;47485;51.378;-1.342;2023-03-15T12:59:21;100237.70;;;0.67;36.71
63339;BME280;47485;51.378;-1.342;2023-03-15T13:01:51;100233.17;;;2.21;35.66
63339;BME280;47485;51.378;-1.342;2023-03-15T13:04:30;100231.68;;;1.93;35.93